Latest Weather Observations for Bellambi

IDN60901

Issued at 6:51 pm EDT Sunday 14 February 2016 (issued every 10 minutes, with the page automatically refreshed every 10 minutes)

About weather observations | Map of Sydney area stations | Latest observations for Sydney area | Other Formats
Station Details ID: 068228 Name: BELLAMBI AWS Lat: -34.37 Lon: 150.93 Height: 10.0 m
Data from the previous 72 hours. | See also: Recent months at Bellambi
Date/Time
EDT
Tmp

°C
App
Tmp
°C
Dew
Point
°C
Rel
Hum
%
Delta-T

°C
Wind Press
QNH
hPa
Press
MSL
hPa
Rain
since
9 am
mm
Dir
 
Spd
km/h
Gust
km/h
Spd
kts
Gust
kts
14/06:30pm 23.6 21.5 20.5 83 2.0 S 32 37 17 20 - - 0.0
14/06:00pm 23.6 21.9 20.5 83 2.0 S 30 35 16 19 - - 0.0
14/05:30pm 23.9 22.9 21.2 85 1.8 S 28 32 15 17 - - 0.0
14/05:00pm 24.0 23.3 21.1 84 1.9 S 26 30 14 16 - - 0.0
14/04:30pm 24.1 23.0 21.0 83 2.0 S 28 33 15 18 - - 0.0
14/04:00pm 24.2 23.0 20.9 82 2.2 S 28 33 15 18 - - 0.0
14/03:30pm 23.8 22.4 20.5 82 2.1 S 28 32 15 17 - - 0.0
14/03:00pm 23.9 23.3 20.4 81 2.3 S 24 28 13 15 - - 0.0
14/02:30pm 24.7 25.2 21.2 81 2.3 S 20 24 11 13 - - 0.0
14/02:00pm 23.9 23.9 21.0 84 1.9 S 22 26 12 14 - - 0.0
14/01:30pm 23.6 23.1 20.7 84 1.9 S 24 28 13 15 - - 0.0
14/01:00pm 23.9 23.8 20.8 83 2.0 S 22 28 12 15 - - 0.0
14/12:30pm 24.4 23.7 21.1 82 2.2 S 26 32 14 17 - - 0.0
14/12:00pm 25.0 25.6 21.3 80 2.4 S 20 28 11 15 - - 0.0
14/11:30am 25.0 24.8 20.5 76 2.9 S 22 28 12 15 - - 0.0
14/11:00am 25.9 26.6 20.5 72 3.5 ENE 17 20 9 11 - - 0.0
14/10:30am 28.2 28.9 18.9 57 6.0 ENE 13 17 7 9 - - 0.0
14/10:00am 29.9 30.7 17.4 47 7.9 W 9 20 5 11 - - 0.0
14/09:30am 28.5 29.1 16.7 48 7.4 NE 9 20 5 11 - - 0.0
14/09:00am 28.3 26.7 15.9 47 7.6 NNW 19 26 10 14 - - 0.0
14/08:30am 27.2 25.6 16.5 52 6.6 NW 20 30 11 16 - - 0.0
14/08:00am 24.5 26.0 18.9 71 3.6 N 9 19 5 10 - - 0.0
14/07:30am 24.2 24.1 18.8 72 3.4 NE 17 24 9 13 - - 0.0
14/07:00am 23.4 24.2 19.1 77 2.7 NNE 13 20 7 11 - - 0.0
14/06:30am 23.3 24.8 19.7 80 2.3 NNE 11 15 6 8 - - 0.0
14/06:00am 22.7 23.6 19.3 81 2.2 NNE 13 19 7 10 - - 0.0
14/05:30am 22.7 24.8 18.9 79 2.4 NNE 6 13 3 7 - - 0.0
14/05:00am 22.2 23.8 18.2 78 2.5 W 7 11 4 6 - - 0.0
14/04:30am 22.9 23.8 18.4 76 2.8 NNW 11 15 6 8 - - 0.0
14/04:00am 23.3 23.4 18.4 74 3.1 NNW 15 20 8 11 - - 0.0
14/03:30am 23.5 23.6 19.2 77 2.7 NNE 17 22 9 12 - - 0.0
14/03:00am 23.2 22.2 18.9 77 2.7 NNE 22 28 12 15 - - 0.0
14/02:30am 23.6 23.3 19.1 76 2.9 NNE 19 26 10 14 - - 0.0
14/02:00am 23.5 23.1 18.8 75 3.0 NNE 19 26 10 14 - - 0.0
14/01:30am 24.1 23.6 18.7 72 3.4 NNE 19 22 10 12 - - 0.0
14/01:00am 24.2 24.4 18.6 71 3.5 NNE 15 20 8 11 - - 0.0
14/12:30am 24.0 22.9 18.6 72 3.4 NE 22 28 12 15 - - 0.0
14/12:00am 23.5 22.0 18.6 74 3.1 NE 24 30 13 16 - - 0.0
 
Date/Time
EDT
Tmp

°C
App
Tmp
°C
Dew
Point
°C
Rel
Hum
%
Delta-T

°C
Wind Press
QNH
hPa
Press
MSL
hPa
Rain
since
9 am
mm
Dir
 
Spd
km/h
Gust
km/h
Spd
kts
Gust
kts
13/11:30pm 23.4 22.6 18.5 74 3.1 NE 20 24 11 13 - - 0.0
13/11:00pm 23.5 23.2 19.2 77 2.7 NNE 19 22 10 12 - - 0.0
13/10:30pm 23.7 23.8 20.0 80 2.4 NNE 19 22 10 12 - - 0.0
13/10:00pm 23.2 24.4 20.0 82 2.1 NNE 13 19 7 10 - - 0.0
13/09:30pm 23.4 23.5 20.0 81 2.2 NNE 19 24 10 13 - - 0.0
13/09:00pm 23.4 22.3 20.2 82 2.1 NE 26 30 14 16 - - 0.0
13/08:30pm 23.6 22.9 20.3 82 2.1 NNE 24 32 13 17 - - 0.0
13/08:00pm 23.8 21.9 20.1 80 2.4 NE 30 35 16 19 - - 0.0
13/07:30pm 23.9 20.9 19.8 78 2.6 NE 35 39 19 21 - - 0.0
13/07:00pm 24.1 20.8 20.0 78 2.6 NE 37 43 20 23 - - 0.0
13/06:30pm 24.2 20.6 20.1 78 2.7 NE 39 44 21 24 - - 0.0
13/06:00pm 24.3 20.2 20.0 77 2.8 NE 41 46 22 25 - - 0.0
13/05:30pm 24.6 20.9 19.9 75 3.0 NE 39 46 21 25 - - 0.0
13/05:00pm 24.8 20.3 19.8 74 3.2 NE 43 52 23 28 - - 0.0
13/04:30pm 25.1 21.5 20.1 74 3.2 NE 39 48 21 26 - - 0.0
13/04:00pm 25.3 21.8 20.3 74 3.3 NE 39 48 21 26 - - 0.0
13/03:30pm 25.3 21.9 19.9 72 3.5 NE 37 48 20 26 - - 0.0
13/03:00pm 25.7 23.2 19.8 70 3.8 NE 32 41 17 22 - - 0.0
13/02:30pm 25.5 22.0 19.6 70 3.8 NE 37 48 20 26 - - 0.0
13/02:00pm 25.7 23.0 19.6 69 3.9 NE 33 41 18 22 - - 0.0
13/01:30pm 25.9 23.1 20.2 71 3.7 NE 35 43 19 23 - - 0.0
13/01:00pm 25.6 22.2 19.9 70 3.7 NE 37 43 20 23 - - 0.0
13/12:30pm 25.6 22.8 20.2 72 3.5 NE 35 41 19 22 - - 0.0
13/12:00pm 25.3 22.3 19.9 72 3.5 NE 35 41 19 22 - - 0.0
13/11:30am 25.9 24.3 20.7 73 3.4 NE 30 35 16 19 - - 0.0
13/11:00am 26.1 25.3 20.0 69 4.0 NE 24 28 13 15 - - 0.0
13/10:30am 25.8 25.4 19.0 66 4.4 NE 19 24 10 13 - - 0.0
13/10:00am 25.6 25.2 19.0 67 4.2 NE 19 26 10 14 - - 0.0
13/09:30am 25.0 24.6 18.9 69 3.9 NNE 19 22 10 12 - - 0.0
13/09:00am 24.2 24.3 18.4 70 3.7 N 15 20 8 11 - - 0.0
13/08:30am 23.5 22.8 18.2 72 3.3 N 19 24 10 13 - - 0.0
13/08:00am 23.2 22.9 18.3 74 3.1 N 17 24 9 13 - - 0.0
13/07:30am 22.8 22.0 17.9 74 3.1 N 19 28 10 15 - - 0.0
13/07:00am 22.4 21.7 18.2 77 2.6 N 19 26 10 14 - - 0.0
13/06:30am 22.3 21.6 18.3 78 2.5 N 19 24 10 13 - - 0.0
13/06:00am 22.2 22.2 18.2 78 2.5 NNW 15 20 8 11 - - 0.0
13/05:30am 22.4 22.2 18.6 79 2.4 N 17 24 9 13 - - 0.0
13/05:00am 22.4 21.9 18.6 79 2.4 N 19 26 10 14 - - 0.0
13/04:30am 22.5 22.4 18.7 79 2.4 N 17 24 9 13 - - 0.0
13/04:00am 22.5 22.9 18.9 80 2.3 N 15 20 8 11 - - 0.0
13/03:30am 22.5 23.3 19.1 81 2.2 NNE 13 17 7 9 - - 0.0
13/03:00am 22.6 23.4 19.0 80 2.3 NNE 13 24 7 13 - - 0.0
13/02:30am 22.9 23.2 19.5 81 2.2 N 17 20 9 11 - - 0.0
13/02:00am 22.9 23.6 19.7 82 2.1 N 15 19 8 10 - - 0.0
13/01:30am 23.0 24.2 19.8 82 2.1 N 13 15 7 8 - - 0.0
13/01:00am 23.1 24.3 19.9 82 2.1 N 13 15 7 8 - - 0.0
13/12:30am 23.0 25.2 19.6 81 2.2 N 7 9 4 5 - - 0.0
13/12:00am 23.2 24.7 19.8 81 2.2 NNW 11 17 6 9 - - 0.0
 
Date/Time
EDT
Tmp

°C
App
Tmp
°C
Dew
Point
°C
Rel
Hum
%
Delta-T

°C
Wind Press
QNH
hPa
Press
MSL
hPa
Rain
since
9 am
mm
Dir
 
Spd
km/h
Gust
km/h
Spd
kts
Gust
kts
12/11:30pm 23.5 23.7 20.2 82 2.1 N 19 22 10 12 - - 0.0
12/11:00pm 23.6 23.9 20.3 82 2.1 N 19 22 10 12 - - 0.0
12/10:30pm 23.8 24.1 20.5 82 2.1 N 19 24 10 13 - - 0.0
12/10:00pm 23.8 24.4 20.3 81 2.3 NNE 17 22 9 12 - - 0.0
12/09:30pm 23.9 23.6 20.4 81 2.3 NNE 22 30 12 16 - - 0.0
12/09:00pm 23.9 23.2 20.2 80 2.4 NNE 24 28 13 15 - - 0.0
12/08:30pm 24.0 23.5 20.7 82 2.2 NNE 24 32 13 17 - - 0.0
12/08:00pm 24.0 22.8 20.1 79 2.5 NNE 26 32 14 17 - - 0.0
12/07:30pm 24.1 23.9 20.6 81 2.3 NE 22 28 12 15 - - 0.0
12/07:00pm 24.3 23.8 20.0 77 2.8 NNE 22 28 12 15 - - 0.0
12/06:30pm 24.8 24.4 20.1 75 3.0 NE 22 28 12 15 - - 0.0
12/06:00pm 25.1 24.7 20.1 74 3.2 NE 22 28 12 15 - - 0.0
12/05:30pm 25.4 24.8 19.8 71 3.6 NE 22 26 12 14 - - 0.0
12/05:00pm 25.8 25.2 19.7 69 3.9 NE 22 26 12 14 - - 0.0
12/04:30pm 26.0 26.1 20.3 71 3.7 NE 20 24 11 13 - - 0.0
12/04:00pm 25.9 25.3 19.8 69 4.0 NE 22 26 12 14 - - 0.0
12/03:30pm 26.0 25.5 19.9 69 4.0 NE 22 26 12 14 - - 0.0
12/03:00pm 26.4 26.6 20.5 70 3.9 NE 20 24 11 13 - - 0.0
12/02:30pm 26.3 26.2 19.9 68 4.2 NE 20 24 11 13 - - 0.0
12/02:00pm 26.5 26.9 20.6 70 3.9 NE 19 22 10 12 - - 0.0
12/01:30pm 25.7 25.6 20.0 71 3.7 ENE 20 24 11 13 - - 0.0
12/01:00pm 26.2 27.6 21.0 73 3.4 ENE 15 17 8 9 - - 0.0
12/12:30pm 25.9 26.4 20.0 70 3.8 ENE 17 19 9 10 - - 0.0
12/12:00pm 25.9 26.6 20.5 72 3.5 ENE 17 20 9 11 - - 0.0
12/11:30am 25.8 27.9 21.0 75 3.2 E 11 15 6 8 - - 0.0
12/11:00am 25.5 26.3 20.7 75 3.1 E 17 19 9 10 - - 0.0
12/10:30am 25.0 25.7 20.5 76 2.9 E 17 17 9 9 - - 0.0
12/10:00am 24.9 26.5 19.9 74 3.2 ESE 11 13 6 7 - - 0.0
12/09:30am 24.4 26.3 19.7 75 3.0 ESE 9 11 5 6 - - 0.0
12/09:00am 24.0 26.2 19.5 76 2.9 SE 7 9 4 5 - - 0.0
12/08:30am 23.6 26.0 19.7 79 2.5 SE 6 7 3 4 - - 0.0
12/08:00am 22.7 26.4 19.9 84 1.8 CALM 0 0 0 0 - - 0.0
12/07:30am 21.3 23.2 18.9 86 1.5 W 7 7 4 4 - - 0.0
12/07:00am 20.4 22.9 18.2 87 1.4 WNW 2 7 1 4 - - 0.0
12/06:30am 19.9 22.5 17.5 86 1.5 CALM 0 0 0 0 - - 0.0
12/06:00am 20.2 22.6 18.0 87 1.4 WNW 2 7 1 4 - - 0.0
12/05:30am 19.8 21.2 17.4 86 1.5 W 6 6 3 3 - - 0.0
12/05:00am 20.2 21.6 17.8 86 1.5 WSW 7 9 4 5 - - 0.0
12/04:30am 20.4 21.5 18.0 86 1.5 WSW 9 11 5 6 - - 0.0
12/04:00am 21.1 23.9 17.9 82 2.0 CALM 0 0 0 0 - - 0.0
12/03:30am 21.4 24.2 18.0 81 2.1 CALM 0 0 0 0 - - 0.0
12/03:00am 21.5 24.4 18.3 82 2.0 CALM 0 0 0 0 - - 0.0
12/02:30am 21.9 25.1 18.9 83 1.9 CALM 0 0 0 0 - - 0.0
12/02:00am 22.0 23.8 18.8 82 2.0 WNW 7 7 4 4 - - 0.0
12/01:30am 22.3 25.5 18.9 81 2.1 CALM 0 6 0 3 - - 0.0
12/01:00am 22.3 23.9 19.1 82 2.0 WSW 9 11 5 6 - - 0.0
12/12:30am 22.7 26.0 19.1 80 2.3 CALM 0 2 0 1 - - 0.0
12/12:00am 23.1 25.3 19.3 79 2.4 NNW 6 7 3 4 - - 0.0
 
Date/Time
EDT
Tmp

°C
App
Tmp
°C
Dew
Point
°C
Rel
Hum
%
Delta-T

°C
Wind Press
QNH
hPa
Press
MSL
hPa
Rain
since
9 am
mm
Dir
 
Spd
km/h
Gust
km/h
Spd
kts
Gust
kts
11/11:30pm 23.5 24.7 19.8 80 2.4 NNE 13 17 7 9 - - 0.0
11/11:00pm 23.9 24.8 20.0 79 2.5 N 15 17 8 9 - - 0.0
11/10:30pm 24.0 24.9 20.1 79 2.5 NNE 15 19 8 10 - - 0.0
11/10:00pm 24.0 24.1 19.9 78 2.6 NE 19 20 10 11 - - 0.0
11/09:30pm 23.8 24.1 19.7 78 2.6 ENE 17 19 9 10 - - 0.0
11/09:00pm 23.8 24.9 19.7 78 2.6 E 13 15 7 8 - - 0.0
11/08:30pm 23.8 24.3 19.3 76 2.9 ENE 15 17 8 9 - - 0.0
11/08:00pm 23.9 24.1 19.4 76 2.9 ENE 17 20 9 11 - - 0.0
11/07:30pm 23.9 24.0 19.2 75 3.0 ENE 17 19 9 10 - - 0.0
11/07:00pm 24.1 24.1 19.0 73 3.2 E 17 19 9 10 - - 0.0

Latest Capital City Observations: Canberra | Sydney | Melbourne | Brisbane | Adelaide | Perth | Hobart | Darwin

Other Formats:

Comma delimited format used in spreadsheet applications
http://www.bom.gov.au/fwo/IDN60901/IDN60901.94749.axf

JavaScript Object Notation format (JSON) in row-major order
http://www.bom.gov.au/fwo/IDN60901/IDN60901.94749.json